Time;durP1;ratioP1;P1;durP2;ratioP2;P2;SDS_P1;SDS_P2;PMS_P1;PMS_P2;Temp;Humidity;BMP_temperature;BMP_pressure;BME280_temperature;BME280_humidity;BME280_pressure;Samples;Min_cycle;Max_cycle;Signal;HPM_P1;HPM_P2
2024/04/13 00:00:24;;;;;;;3.47;2.45;;;;;;;10.42;100.00;94244.84;2101187;28;20036;-80
2024/04/13 00:01:25;;;;;;;3.88;2.63;;;;;;;10.39;100.00;94245.59;2102254;28;20031;-81
2024/04/13 00:02:26;;;;;;;3.33;2.78;;;;;;;10.51;100.00;94247.84;2094171;28;20417;-82
2024/04/13 00:03:30;;;;;;;6.55;2.70;;;;;;;10.56;100.00;94242.09;2094658;28;20017;-78
2024/04/13 00:04:31;;;;;;;5.45;3.08;;;;;;;10.62;100.00;94242.47;2110740;28;20192;-82
2024/04/13 00:05:32;;;;;;;5.38;2.95;;;;;;;10.55;100.00;94245.19;2110788;28;20015;-84
2024/04/13 00:06:34;;;;;;;4.43;3.10;;;;;;;10.24;100.00;94234.19;2110715;28;20031;-79
2024/04/13 00:07:35;;;;;;;4.75;2.80;;;;;;;10.21;100.00;94239.50;2110880;28;20019;-81
2024/04/13 00:08:36;;;;;;;4.40;2.67;;;;;;;10.49;100.00;94239.47;2111326;28;20035;-80
2024/04/13 00:09:37;;;;;;;5.05;3.10;;;;;;;10.32;100.00;94241.03;2109904;28;20038;-83
2024/04/13 00:10:38;;;;;;;4.03;2.67;;;;;;;10.45;100.00;94240.63;2107516;28;20053;-82
2024/04/13 00:11:44;;;;;;;4.47;3.00;;;;;;;10.27;100.00;94235.31;2098522;28;20036;-81
2024/04/13 00:12:45;;;;;;;3.78;2.63;;;;;;;10.23;100.00;94232.63;2100904;28;20032;-80
2024/04/13 00:13:46;;;;;;;4.00;2.70;;;;;;;10.12;100.00;94231.88;2112695;28;20472;-81
2024/04/13 00:14:47;;;;;;;3.88;2.83;;;;;;;10.13;100.00;94232.66;2114985;28;20473;-84
2024/04/13 00:15:55;;;;;;;5.03;2.85;;;;;;;10.18;100.00;94227.66;2111129;28;20480;-81
2024/04/13 00:16:56;;;;;;;4.97;2.70;;;;;;;10.13;100.00;94232.66;2111006;28;20426;-86
2024/04/13 00:17:58;;;;;;;3.88;2.92;;;;;;;9.95;100.00;94230.78;2107113;28;20032;-85
2024/04/13 00:18:59;;;;;;;5.63;2.70;;;;;;;10.01;100.00;94239.19;2106248;28;20020;-83
2024/04/13 00:20:00;;;;;;;6.50;2.78;;;;;;;10.04;100.00;94241.81;2090046;28;20036;-81
2024/04/13 00:21:02;;;;;;;4.22;2.75;;;;;;;9.94;100.00;94236.50;2106071;28;20500;-81
2024/04/13 00:22:04;;;;;;;5.22;3.00;;;;;;;9.95;100.00;94243.38;2114554;28;20024;-82
2024/04/13 00:23:05;;;;;;;4.88;2.53;;;;;;;9.78;100.00;94242.22;2111141;28;20036;-84
2024/04/13 00:24:06;;;;;;;3.95;2.85;;;;;;;9.78;100.00;94232.31;2114167;28;20028;-82
2024/04/13 00:25:08;;;;;;;7.55;3.08;;;;;;;9.37;100.00;94233.84;2098765;28;20029;-80
2024/04/13 00:26:09;;;;;;;6.57;2.88;;;;;;;9.78;100.00;94232.31;2102202;28;20086;-83
2024/04/13 00:27:11;;;;;;;3.65;2.63;;;;;;;9.65;100.00;94233.06;2114480;28;20122;-78
2024/04/13 00:28:12;;;;;;;7.68;3.05;;;;;;;9.63;100.00;94232.72;2115496;28;20020;-79
2024/04/13 00:29:13;;;;;;;7.40;2.80;;;;;;;9.59;100.00;94228.13;2113885;28;20058;-80
2024/04/13 00:30:14;;;;;;;5.65;2.55;;;;;;;9.78;100.00;94228.88;2108646;28;20027;-84
2024/04/13 00:31:15;;;;;;;5.07;2.58;;;;;;;9.56;100.00;94223.53;2112690;28;20047;-84
2024/04/13 00:32:17;;;;;;;6.63;2.95;;;;;;;9.59;100.00;94217.44;2100252;28;20098;-80
2024/04/13 00:33:18;;;;;;;2.97;2.47;;;;;;;9.49;100.00;94223.56;2110360;28;20061;-82
2024/04/13 00:34:19;;;;;;;4.57;2.88;;;;;;;9.49;100.00;94220.88;2110754;28;20035;-83
2024/04/13 00:35:21;;;;;;;5.70;2.60;;;;;;;9.52;100.00;94220.09;2114760;28;20132;-81
2024/04/13 00:36:22;;;;;;;4.55;2.95;;;;;;;9.39;100.00;94212.88;2111726;28;20027;-82
2024/04/13 00:37:23;;;;;;;3.40;2.50;;;;;;;9.39;100.00;94213.63;2109034;28;20500;-82
2024/04/13 00:38:24;;;;;;;3.83;3.03;;;;;;;9.39;100.00;94215.53;2101958;28;20020;-81
2024/04/13 00:39:25;;;;;;;3.78;2.70;;;;;;;9.39;100.00;94213.63;2094605;28;20028;-80
2024/04/13 00:40:26;;;;;;;5.18;2.78;;;;;;;9.52;100.00;94211.34;2109713;28;20027;-83
2024/04/13 00:41:27;;;;;;;3.42;2.42;;;;;;;9.52;100.00;94214.78;2111049;28;20020;-83
2024/04/13 00:42:28;;;;;;;5.25;2.90;;;;;;;9.42;100.00;94210.19;2109758;28;20449;-80
2024/04/13 00:43:29;;;;;;;4.35;2.60;;;;;;;9.47;100.00;94214.41;2111324;28;20103;-82
2024/04/13 00:44:30;;;;;;;5.47;2.63;;;;;;;9.34;100.00;94206.00;2105996;28;20030;-83
2024/04/13 00:45:42;;;;;;;5.18;3.08;;;;;;;9.43;100.00;94209.06;2102217;28;20474;-81
2024/04/13 00:46:43;;;;;;;2.85;2.53;;;;;;;9.39;100.00;94200.28;2110267;28;20041;-80
2024/04/13 00:47:48;;;;;;;5.35;3.20;;;;;;;9.55;100.00;94206.00;2106957;28;20032;-80
2024/04/13 00:48:50;;;;;;;4.05;2.97;;;;;;;9.75;100.00;94205.63;2106697;28;20028;-79
2024/04/13 00:49:55;;;;;;;3.88;2.90;;;;;;;9.42;100.00;94196.84;2113015;28;20023;-81
2024/04/13 00:50:59;;;;;;;3.95;2.92;;;;;;;9.17;100.00;94199.50;2114112;28;20459;-80
2024/04/13 00:52:00;;;;;;;3.53;2.72;;;;;;;9.21;100.00;94202.94;2110555;28;20370;-79
2024/04/13 00:53:01;;;;;;;3.08;2.50;;;;;;;9.14;100.00;94204.84;2093700;28;20118;-82
2024/04/13 00:54:02;;;;;;;5.20;2.67;;;;;;;9.13;100.00;94204.09;2097759;28;20020;-79
2024/04/13 00:55:04;;;;;;;5.30;2.78;;;;;;;9.06;100.00;94202.16;2106395;28;20109;-82
2024/04/13 00:56:06;;;;;;;4.75;2.90;;;;;;;9.25;100.00;94200.28;2114029;28;20034;-81
2024/04/13 00:57:08;;;;;;;6.35;2.95;;;;;;;9.36;100.00;94195.72;2105067;28;20093;-81
2024/04/13 00:58:11;;;;;;;4.15;2.35;;;;;;;9.00;100.00;94197.56;2107066;27;20562;-83
2024/04/13 00:59:12;;;;;;;4.30;2.42;;;;;;;9.34;100.00;94198.00;2122275;27;20375;-81
2024/04/13 01:00:14;;;;;;;5.47;2.60;;;;;;;9.34;100.00;94195.31;2115186;27;20103;-79
2024/04/13 01:01:16;;;;;;;5.45;2.80;;;;;;;9.22;100.00;94196.47;2109945;28;20032;-81
2024/04/13 01:02:19;;;;;;;6.45;2.83;;;;;;;9.41;100.00;94197.25;2112272;28;20023;-82
2024/04/13 01:03:20;;;;;;;5.15;2.70;;;;;;;9.45;100.00;94195.34;2108393;28;20023;-82
2024/04/13 01:04:23;;;;;;;6.93;3.42;;;;;;;9.01;100.00;94197.22;2103522;28;20023;-81
2024/04/13 01:05:24;;;;;;;3.97;2.67;;;;;;;9.04;100.00;94193.00;2106154;28;20024;-80
2024/04/13 01:06:29;;;;;;;6.97;3.10;;;;;;;9.11;100.00;94195.69;2106772;28;20027;-83
2024/04/13 01:07:30;;;;;;;3.90;2.65;;;;;;;9.10;100.00;94196.09;2096595;28;20382;-84
2024/04/13 01:08:34;;;;;;;3.92;2.70;;;;;;;9.06;100.00;94194.16;2089114;28;20036;-80
2024/04/13 01:09:36;;;;;;;4.78;2.55;;;;;;;9.24;100.00;94191.53;2102770;28;20111;-80
2024/04/13 01:10:40;;;;;;;4.60;2.80;;;;;;;9.21;100.00;94194.19;2101413;28;20508;-82
2024/04/13 01:11:42;;;;;;;2.78;2.47;;;;;;;9.33;100.00;94199.16;2103567;28;20145;-83
2024/04/13 01:12:44;;;;;;;3.75;2.70;;;;;;;9.37;100.00;94189.25;2108342;28;20031;-78
2024/04/13 01:13:45;;;;;;;4.57;2.80;;;;;;;9.29;100.00;94190.38;2101789;28;20020;-83
2024/04/13 01:14:46;;;;;;;2.83;2.53;;;;;;;9.26;100.00;94196.47;2101685;28;20028;-83
2024/04/13 01:15:48;;;;;;;6.07;2.65;;;;;;;9.14;100.00;94192.28;2112168;28;20077;-80
2024/04/13 01:16:49;;;;;;;4.55;2.58;;;;;;;9.11;100.00;94195.69;2108543;28;20065;-80
2024/04/13 01:17:50;;;;;;;4.32;2.85;;;;;;;8.95;100.00;94190.72;2110534;28;20372;-83
2024/04/13 01:18:52;;;;;;;4.78;2.90;;;;;;;9.08;100.00;94194.53;2101853;28;20020;-82
2024/04/13 01:19:53;;;;;;;6.70;2.67;;;;;;;9.22;100.00;94187.69;2088312;28;20098;-79
2024/04/13 01:20:54;;;;;;;3.97;2.40;;;;;;;9.08;100.00;94197.19;2089155;28;20461;-83
2024/04/13 01:21:56;;;;;;;4.72;2.63;;;;;;;9.20;100.00;94193.41;2090397;28;20033;-81
2024/04/13 01:22:58;;;;;;;4.63;2.55;;;;;;;9.33;100.00;94191.16;2113182;28;20019;-81
2024/04/13 01:24:04;;;;;;;5.03;2.58;;;;;;;9.29;100.00;94187.72;2106396;28;20023;-81
2024/04/13 01:25:13;;;;;;;6.05;2.78;;;;;;;9.08;100.00;94202.53;2094464;28;20028;-78
2024/04/13 01:26:14;;;;;;;7.45;2.50;;;;;;;9.10;100.00;94198.75;2105569;28;20439;-82
2024/04/13 01:27:16;;;;;;;5.82;2.53;;;;;;;9.24;100.00;94196.09;2098873;28;20242;-81
2024/04/13 01:28:17;;;;;;;3.30;2.65;;;;;;;9.21;100.00;94205.59;2104001;28;20117;-79
2024/04/13 01:29:18;;;;;;;4.70;2.90;;;;;;;9.26;100.00;94197.25;2099619;28;20027;-83
2024/04/13 01:30:22;;;;;;;3.28;2.13;;;;;;;9.34;100.00;94203.34;2109800;28;20086;-83
2024/04/13 01:31:24;;;;;;;4.28;2.58;;;;;;;9.42;100.00;94198.78;2111384;28;20024;-82
2024/04/13 01:32:25;;;;;;;4.90;2.22;;;;;;;9.23;100.00;94202.56;2109585;28;20022;-81
2024/04/13 01:33:26;;;;;;;9.10;2.50;;;;;;;9.26;100.00;94209.81;2109874;28;20016;-82
2024/04/13 01:34:27;;;;;;;3.20;2.50;;;;;;;9.39;100.00;94202.19;2114260;28;20024;-84
2024/04/13 01:35:28;;;;;;;3.70;2.28;;;;;;;9.33;100.00;94202.56;2102392;28;20013;-80
2024/04/13 01:36:35;;;;;;;3.80;2.30;;;;;;;9.50;100.00;94205.63;2093005;28;20035;-81
2024/04/13 01:37:37;;;;;;;3.22;2.35;;;;;;;9.55;100.00;94202.59;2093575;28;20027;-83
2024/04/13 01:38:38;;;;;;;4.65;2.40;;;;;;;9.42;100.00;94206.78;2102755;28;20454;-80
2024/04/13 01:39:39;;;;;;;3.50;2.30;;;;;;;9.65;100.00;94203.72;2100481;28;20025;-80
2024/04/13 01:40:40;;;;;;;3.08;2.38;;;;;;;9.51;100.00;94207.91;2102734;28;20103;-79
2024/04/13 01:41:44;;;;;;;4.78;2.20;;;;;;;9.57;100.00;94203.72;2103088;28;20023;-81
2024/04/13 01:42:45;;;;;;;4.55;2.78;;;;;;;9.50;100.00;94202.97;2089877;28;20056;-78
2024/04/13 01:43:46;;;;;;;2.40;2.20;;;;;;;9.65;100.00;94203.72;2105680;28;20043;-81
2024/04/13 01:44:48;;;;;;;3.20;2.28;;;;;;;9.66;100.00;94199.91;2106653;28;20028;-82
2024/04/13 01:46:02;;;;;;;4.55;2.80;;;;;;;9.40;100.00;94191.16;2112614;28;20081;-80
2024/04/13 01:47:05;;;;;;;3.22;2.40;;;;;;;9.49;100.00;94204.13;2107371;28;20020;-80
2024/04/13 01:48:06;;;;;;;4.80;2.53;;;;;;;9.45;100.00;94198.78;2097759;28;20029;-81
2024/04/13 01:49:09;;;;;;;4.57;2.28;;;;;;;9.35;100.00;94196.88;2101790;28;20033;-80
2024/04/13 01:50:12;;;;;;;3.92;2.40;;;;;;;9.21;100.00;94191.50;2105718;28;20056;-78
2024/04/13 01:51:13;;;;;;;4.22;2.35;;;;;;;9.30;100.00;94198.00;2107048;28;20149;-81
2024/04/13 01:52:14;;;;;;;3.95;2.35;;;;;;;9.39;100.00;94194.19;2114096;28;20496;-79
2024/04/13 01:53:15;;;;;;;2.67;2.47;;;;;;;9.45;100.00;94195.34;2109390;28;20171;-82
2024/04/13 01:54:17;;;;;;;2.83;2.28;;;;;;;9.39;100.00;94196.84;2095593;28;20376;-81
2024/04/13 01:55:18;;;;;;;4.80;2.50;;;;;;;9.31;100.00;94198.78;2093449;28;20031;-79
2024/04/13 01:56:19;;;;;;;4.80;2.42;;;;;;;9.40;100.00;94207.16;2107985;28;20031;-81
2024/04/13 01:57:20;;;;;;;3.03;2.47;;;;;;;9.56;100.00;94202.19;2114081;28;20384;-80
2024/04/13 01:58:21;;;;;;;3.60;2.53;;;;;;;9.60;100.00;94196.84;2102894;28;20373;-83
2024/04/13 01:59:22;;;;;;;3.53;2.38;;;;;;;9.52;100.00;94208.66;2100087;28;20032;-82
2024/04/13 02:00:23;;;;;;;6.82;2.58;;;;;;;9.25;100.00;94211.72;2111434;28;20712;-81
2024/04/13 02:01:24;;;;;;;3.38;2.35;;;;;;;9.22;100.00;94204.50;2114112;28;20062;-79
2024/04/13 02:02:25;;;;;;;4.00;2.70;;;;;;;9.29;100.00;94204.47;2114129;28;20019;-81
2024/04/13 02:03:25;;;;;;;6.20;2.63;;;;;;;9.29;100.00;94206.38;2110480;28;20019;-84
2024/04/13 02:04:26;;;;;;;4.93;2.70;;;;;;;9.23;100.00;94203.34;2109174;28;20023;-82
2024/04/13 02:05:27;;;;;;;6.22;2.75;;;;;;;9.16;100.00;94203.31;2106026;28;20055;-81
2024/04/13 02:06:29;;;;;;;4.47;2.30;;;;;;;9.11;100.00;94210.94;2110342;28;20020;-81
2024/04/13 02:07:33;;;;;;;4.45;2.58;;;;;;;8.96;100.00;94207.50;2114261;28;20023;-81
2024/04/13 02:08:35;;;;;;;5.28;2.30;;;;;;;9.16;100.00;94208.66;2101252;28;20453;-81
2024/04/13 02:09:37;;;;;;;4.28;2.35;;;;;;;9.15;100.00;94209.03;2102050;28;20561;-80
2024/04/13 02:10:39;;;;;;;5.40;2.80;;;;;;;9.12;100.00;94205.22;2113941;28;20437;-81
2024/04/13 02:11:40;;;;;;;5.35;2.50;;;;;;;9.00;100.00;94218.91;2100464;28;20461;-78
2024/04/13 02:12:41;;;;;;;4.07;2.47;;;;;;;8.83;100.00;94209.75;2110731;28;20026;-80
2024/04/13 02:13:43;;;;;;;4.43;2.55;;;;;;;8.78;100.00;94207.44;2105411;28;20028;-80
2024/04/13 02:14:44;;;;;;;6.88;2.38;;;;;;;8.99;100.00;94207.47;2101278;28;20477;-83
2024/04/13 02:15:46;;;;;;;3.92;2.40;;;;;;;9.09;100.00;94211.34;2091339;28;20057;-82
2024/04/13 02:16:50;;;;;;;4.53;2.40;;;;;;;9.00;100.00;94210.91;2103935;28;20031;-81
2024/04/13 02:17:51;;;;;;;3.15;2.30;;;;;;;9.10;100.00;94209.41;2098721;28;20112;-81
2024/04/13 02:18:52;;;;;;;3.97;2.50;;;;;;;9.08;100.00;94207.88;2095475;28;20024;-81
2024/04/13 02:19:53;;;;;;;6.15;2.60;;;;;;;8.94;100.00;94201.75;2114022;28;20157;-83
2024/04/13 02:20:55;;;;;;;5.13;2.65;;;;;;;9.05;100.00;94205.22;2113963;28;20096;-83
2024/04/13 02:21:56;;;;;;;3.80;2.45;;;;;;;9.20;100.00;94203.31;2114135;28;20046;-80
2024/04/13 02:22:57;;;;;;;5.57;2.40;;;;;;;9.08;100.00;94202.53;2101013;28;20059;-80
2024/04/13 02:23:58;;;;;;;3.10;2.05;;;;;;;9.10;100.00;94206.75;2097672;28;20077;-82
2024/04/13 02:25:00;;;;;;;2.97;1.98;;;;;;;9.13;100.00;94206.75;2113524;28;20046;-82
2024/04/13 02:27:46;;;;;;;;;;;;;;;6.82;100.00;94213.00;2132656;27;20187;-85
2024/04/13 02:28:47;;;;;;;3.97;2.35;;;;;;;6.81;100.00;94211.47;2115004;28;20372;-87
2024/04/13 02:29:50;;;;;;;3.45;2.38;;;;;;;6.74;100.00;94214.03;2110984;28;20016;-89
2024/04/13 02:30:50;;;;;;;6.00;2.40;;;;;;;6.92;100.00;94213.47;2106626;28;20183;-84
2024/04/13 02:31:51;;;;;;;4.05;2.47;;;;;;;6.82;100.00;94215.66;2104622;28;20032;-84
2024/04/13 02:32:52;;;;;;;3.13;2.40;;;;;;;6.93;100.00;94212.31;2110093;28;20119;-82
2024/04/13 02:33:53;;;;;;;5.43;2.78;;;;;;;6.99;100.00;94214.31;2105578;28;20028;-83
2024/04/13 02:34:54;;;;;;;5.55;2.45;;;;;;;6.87;100.00;94214.56;2096988;28;20058;-81
2024/04/13 02:36:03;;;;;;;4.15;2.47;;;;;;;6.81;100.00;94216.78;2100159;28;20158;-82
2024/04/13 02:37:04;;;;;;;4.07;2.30;;;;;;;6.82;100.00;94218.31;2089269;28;20083;-84
2024/04/13 02:38:05;;;;;;;3.53;2.25;;;;;;;6.85;100.00;94216.81;2095811;28;20078;-82
2024/04/13 02:39:08;;;;;;;2.33;2.13;;;;;;;6.90;100.00;94213.84;2095902;28;20020;-84
2024/04/13 02:40:09;;;;;;;5.50;2.42;;;;;;;6.97;100.00;94210.47;2089214;28;20542;-82
2024/04/13 02:41:10;;;;;;;4.70;2.53;;;;;;;7.00;100.00;94209.75;2103336;28;20071;-82
2024/04/13 02:42:11;;;;;;;6.05;2.17;;;;;;;6.93;100.00;94207.78;2097210;28;20473;-87
2024/04/13 02:43:12;;;;;;;5.30;2.70;;;;;;;7.03;100.00;94207.13;2111257;28;20114;-85
2024/04/13 02:44:13;;;;;;;3.40;2.50;;;;;;;6.96;100.00;94199.06;2097417;28;20230;-82
2024/04/13 02:45:14;;;;;;;5.07;2.05;;;;;;;7.14;100.00;94206.44;2104379;28;20020;-83
2024/04/13 02:46:16;;;;;;;3.67;2.33;;;;;;;7.08;100.00;94200.72;2089699;28;20304;-85
2024/04/13 02:47:17;;;;;;;6.05;2.30;;;;;;;7.19;100.00;94201.56;2093904;28;20471;-85
2024/04/13 02:48:20;;;;;;;3.25;2.50;;;;;;;7.10;100.00;94197.69;2091783;28;20074;-82
2024/04/13 02:49:21;;;;;;;2.50;2.30;;;;;;;7.23;100.00;94206.91;2096071;28;20424;-81
2024/04/13 02:50:22;;;;;;;4.93;2.50;;;;;;;7.28;100.00;94209.22;2087768;28;20056;-86
2024/04/13 02:51:23;;;;;;;4.90;2.78;;;;;;;7.26;100.00;94212.25;2101609;28;20118;-84
2024/04/13 02:52:24;;;;;;;3.75;2.22;;;;;;;7.15;100.00;94206.06;2104343;28;20417;-82
2024/04/13 02:53:25;;;;;;;3.83;2.08;;;;;;;7.06;100.00;94214.34;2104564;28;20442;-83
2024/04/13 02:54:26;;;;;;;5.15;2.25;;;;;;;7.11;100.00;94209.84;2100721;28;20031;-86
2024/04/13 02:55:27;;;;;;;2.60;2.15;;;;;;;7.17;100.00;94205.72;2099541;28;20378;-85
2024/04/13 02:56:28;;;;;;;2.30;2.10;;;;;;;7.11;100.00;94212.50;2109113;28;20128;-84
2024/04/13 02:57:29;;;;;;;2.90;2.05;;;;;;;7.18;100.00;94212.56;2099614;28;20056;-80
2024/04/13 02:58:31;;;;;;;3.20;2.20;;;;;;;7.23;100.00;94212.22;2100431;28;20028;-83
2024/04/13 02:59:32;;;;;;;3.00;2.20;;;;;;;7.14;100.00;94209.88;2091508;28;20020;-81
2024/04/13 03:00:33;;;;;;;3.83;2.20;;;;;;;7.19;100.00;94211.44;2100063;28;20167;-85
2024/04/13 03:01:35;;;;;;;2.65;2.10;;;;;;;7.01;100.00;94204.06;2092367;28;20016;-82
2024/04/13 03:02:36;;;;;;;2.65;2.33;;;;;;;7.01;100.00;94212.03;2091422;28;20378;-83
2024/04/13 03:03:37;;;;;;;2.65;2.25;;;;;;;6.94;100.00;94209.31;2092386;28;20039;-84
2024/04/13 03:04:38;;;;;;;4.95;2.25;;;;;;;7.01;100.00;94206.72;2095746;28;20048;-84
2024/04/13 03:05:40;;;;;;;4.65;2.30;;;;;;;7.10;100.00;94211.72;2095788;28;20020;-84
2024/04/13 03:06:41;;;;;;;2.40;2.10;;;;;;;7.00;100.00;94205.19;2101183;28;20840;-83
2024/04/13 03:07:42;;;;;;;3.15;1.83;;;;;;;7.11;100.00;94204.50;2104218;28;20033;-83
2024/04/13 03:08:43;;;;;;;5.35;2.13;;;;;;;7.15;100.00;94200.00;2090417;28;20055;-84
2024/04/13 03:09:44;;;;;;;3.85;2.22;;;;;;;7.10;100.00;94198.44;2101523;28;20020;-82
2024/04/13 03:10:56;;;;;;;6.85;2.10;;;;;;;7.07;100.00;94199.19;2098265;28;20021;-85
2024/04/13 03:11:58;;;;;;;3.95;2.20;;;;;;;6.99;100.00;94198.34;2105099;28;20020;-84
2024/04/13 03:13:00;;;;;;;4.70;2.20;;;;;;;6.85;100.00;94195.56;2088186;28;20075;-86
2024/04/13 03:14:01;;;;;;;5.75;2.17;;;;;;;6.93;100.00;94207.00;2087682;28;20060;-81
2024/04/13 03:15:02;;;;;;;3.95;2.30;;;;;;;6.90;100.00;94211.19;2079227;28;20360;-83
2024/04/13 03:16:06;;;;;;;2.42;2.17;;;;;;;6.86;100.00;94206.97;2088185;28;20041;-84
2024/04/13 03:17:07;;;;;;;4.10;2.15;;;;;;;6.82;100.00;94202.38;2111881;28;20511;-83
2024/04/13 03:18:09;;;;;;;4.47;2.15;;;;;;;6.82;100.00;94201.59;2097503;28;20446;-83
2024/04/13 03:19:10;;;;;;;2.47;2.28;;;;;;;6.98;100.00;94201.34;2102856;28;20043;-83
2024/04/13 03:20:11;;;;;;;3.58;2.25;;;;;;;7.01;100.00;94200.63;2096489;28;20067;-85
2024/04/13 03:21:12;;;;;;;6.55;2.03;;;;;;;7.00;100.00;94201.78;2096930;28;20025;-85
2024/04/13 03:22:13;;;;;;;3.30;2.22;;;;;;;7.03;100.00;94217.00;2099898;28;20493;-85
2024/04/13 03:23:14;;;;;;;3.45;2.20;;;;;;;6.82;100.00;94206.91;2110862;28;20036;-84
2024/04/13 03:24:15;;;;;;;5.15;3.05;;;;;;;6.79;100.00;94212.94;2087509;28;20025;-85
2024/04/13 03:25:16;;;;;;;2.53;2.17;;;;;;;6.85;100.00;94211.50;2089335;28;20064;-85
2024/04/13 03:26:17;;;;;;;5.20;2.25;;;;;;;6.98;100.00;94210.13;2093744;28;20082;-83
2024/04/13 03:27:18;;;;;;;3.45;2.10;;;;;;;6.83;100.00;94211.09;2097221;28;20040;-84
2024/04/13 03:28:23;;;;;;;8.38;2.28;;;;;;;6.88;100.00;94205.44;2103348;28;20032;-83
2024/04/13 03:29:24;;;;;;;3.83;2.22;;;;;;;6.88;100.00;94199.38;2095311;28;20389;-84
2024/04/13 03:30:25;;;;;;;4.65;2.10;;;;;;;6.77;100.00;94202.69;2098973;28;20031;-84
2024/04/13 03:31:26;;;;;;;2.67;2.08;;;;;;;6.83;100.00;94192.50;2086695;28;20669;-85
2024/04/13 03:32:27;;;;;;;3.05;2.00;;;;;;;6.85;100.00;94200.88;2095136;28;20056;-82
2024/04/13 03:33:28;;;;;;;2.83;2.30;;;;;;;6.84;100.00;94201.22;2095277;28;20029;-83
2024/04/13 03:34:29;;;;;;;3.33;2.17;;;;;;;6.81;100.00;94202.75;2090735;28;20021;-84
2024/04/13 03:35:37;;;;;;;2.88;1.88;;;;;;;6.90;100.00;94189.91;2095454;28;20453;-86
2024/04/13 03:36:40;;;;;;;5.18;2.25;;;;;;;7.01;100.00;94197.97;2096459;28;20441;-82
2024/04/13 03:37:41;;;;;;;2.33;2.10;;;;;;;6.94;100.00;94195.28;2104425;28;20055;-84
2024/04/13 03:38:42;;;;;;;3.65;2.03;;;;;;;6.90;100.00;94195.22;2103910;28;20044;-83
2024/04/13 03:39:43;;;;;;;2.22;2.00;;;;;;;6.93;100.00;94199.81;2098179;28;20032;-83
2024/04/13 03:40:46;;;;;;;3.90;2.20;;;;;;;6.94;100.00;94193.38;2090108;28;20474;-82
2024/04/13 03:41:50;;;;;;;3.40;1.90;;;;;;;6.81;100.00;94194.75;2096526;28;20025;-83
2024/04/13 03:42:51;;;;;;;3.03;2.65;;;;;;;6.86;100.00;94198.97;2091954;28;20016;-84
2024/04/13 03:43:52;;;;;;;3.80;2.10;;;;;;;6.83;100.00;94189.84;2105187;28;20031;-83
2024/04/13 03:44:53;;;;;;;4.70;2.00;;;;;;;6.68;100.00;94198.81;2091094;28;20017;-81
2024/04/13 03:45:54;;;;;;;3.92;2.20;;;;;;;6.67;100.00;94194.59;2105445;28;20380;-83
2024/04/13 03:46:55;;;;;;;4.25;2.20;;;;;;;6.77;100.00;94189.41;2098960;28;20020;-87
2024/04/13 03:47:57;;;;;;;2.53;2.08;;;;;;;6.81;100.00;94184.91;2105755;28;20111;-81
2024/04/13 03:48:58;;;;;;;4.13;2.10;;;;;;;6.85;100.00;94181.50;2107097;28;20107;-84
2024/04/13 03:49:59;;;;;;;2.63;2.10;;;;;;;6.88;100.00;94192.16;2106030;28;20051;-85
2024/04/13 03:51:01;;;;;;;4.65;2.17;;;;;;;6.86;100.00;94191.00;2082559;28;20059;-86
2024/04/13 03:52:03;;;;;;;4.50;2.25;;;;;;;6.91;100.00;94190.69;2073875;28;20490;-83
2024/04/13 03:53:04;;;;;;;3.58;2.17;;;;;;;6.88;100.00;94197.47;2090088;28;20115;-83
2024/04/13 03:54:05;;;;;;;4.82;2.17;;;;;;;6.77;100.00;94200.03;2082245;28;20017;-82
2024/04/13 03:55:06;;;;;;;3.65;2.38;;;;;;;6.69;100.00;94197.66;2097479;28;20392;-84
2024/04/13 03:56:07;;;;;;;5.80;2.50;;;;;;;6.63;100.00;94202.56;2091057;28;20501;-85
2024/04/13 03:57:08;;;;;;;4.25;2.00;;;;;;;6.61;100.00;94199.47;2097485;28;20368;-83
2024/04/13 03:58:10;;;;;;;3.53;2.17;;;;;;;6.69;100.00;94195.78;2082430;28;20037;-83
2024/04/13 03:59:13;;;;;;;3.22;2.00;;;;;;;6.69;100.00;94198.44;2088819;28;20099;-84
2024/04/13 04:00:14;;;;;;;3.20;2.25;;;;;;;6.56;100.00;94200.56;2093114;28;20152;-86
2024/04/13 04:01:15;;;;;;;6.75;2.10;;;;;;;6.67;100.00;94200.69;2101461;28;20021;-82
2024/04/13 04:02:17;;;;;;;2.53;2.20;;;;;;;6.63;100.00;94199.91;2085581;28;20036;-83
2024/04/13 04:03:18;;;;;;;3.60;2.15;;;;;;;6.60;100.00;94202.50;2087803;28;20040;-86
2024/04/13 04:04:20;;;;;;;4.45;2.50;;;;;;;6.74;100.00;94202.66;2098107;28;20552;-82
2024/04/13 04:05:22;;;;;;;3.60;2.30;;;;;;;6.82;100.00;94206.91;2087512;28;20121;-83
2024/04/13 04:06:22;;;;;;;2.55;2.08;;;;;;;6.85;100.00;94206.19;2084826;28;20037;-81
2024/04/13 04:07:25;;;;;;;3.20;2.20;;;;;;;6.69;100.00;94203.75;2087027;28;20018;-83
2024/04/13 04:08:26;;;;;;;3.13;2.25;;;;;;;6.67;100.00;94205.22;2101362;28;20028;-81
2024/04/13 04:09:26;;;;;;;3.80;2.28;;;;;;;6.61;100.00;94198.72;2094751;28;20051;-82
2024/04/13 04:10:27;;;;;;;5.22;2.17;;;;;;;6.66;100.00;94207.13;2093086;28;20021;-80
2024/04/13 04:11:29;;;;;;;2.28;2.13;;;;;;;6.71;100.00;94198.06;2089925;28;20052;-84
2024/04/13 04:12:29;;;;;;;4.43;1.80;;;;;;;6.77;100.00;94200.03;2106423;28;20035;-83
2024/04/13 04:13:30;;;;;;;3.35;2.00;;;;;;;6.79;100.00;94195.09;2106314;28;20035;-83
2024/04/13 04:14:31;;;;;;;2.60;1.92;;;;;;;6.73;100.00;94196.56;2094197;28;20053;-83
2024/04/13 04:15:33;;;;;;;2.28;2.08;;;;;;;6.68;100.00;94202.22;2093602;28;20028;-82
2024/04/13 04:16:34;;;;;;;2.88;2.20;;;;;;;6.61;100.00;94202.13;2085672;28;20029;-81
2024/04/13 04:17:35;;;;;;;5.07;2.10;;;;;;;6.69;100.00;94197.66;2094284;28;20021;-82
2024/04/13 04:18:36;;;;;;;2.72;1.83;;;;;;;6.71;100.00;94200.72;2101853;28;20465;-82
2024/04/13 04:19:43;;;;;;;3.22;2.13;;;;;;;6.67;100.00;94203.34;2094519;28;20074;-83
2024/04/13 04:20:48;;;;;;;4.85;2.20;;;;;;;6.72;100.00;94202.25;2085864;28;20025;-84
2024/04/13 04:21:49;;;;;;;3.88;2.00;;;;;;;6.63;100.00;94201.75;2086649;28;20028;-85
2024/04/13 04:22:50;;;;;;;4.13;2.20;;;;;;;6.69;100.00;94195.78;2087992;28;20033;-82
2024/04/13 04:23:51;;;;;;;5.15;2.30;;;;;;;6.72;100.00;94202.25;2091351;28;20106;-85
2024/04/13 04:24:53;;;;;;;3.25;2.05;;;;;;;6.67;100.00;94195.38;2096689;28;20024;-83
2024/04/13 04:25:54;;;;;;;4.53;2.90;;;;;;;6.60;100.00;94197.19;2091071;28;20033;-82
2024/04/13 04:26:55;;;;;;;3.47;2.20;;;;;;;6.64;100.00;94204.06;2105017;28;20043;-84
2024/04/13 04:27:56;;;;;;;4.80;2.30;;;;;;;6.72;100.00;94194.28;2090257;28;20083;-83
2024/04/13 04:28:57;;;;;;;6.40;2.55;;;;;;;6.67;100.00;94203.34;2088804;28;20036;-82
2024/04/13 04:29:58;;;;;;;4.35;2.40;;;;;;;6.80;100.00;94203.84;2089706;28;20512;-86
2024/04/13 04:31:11;;;;;;;2.67;2.20;;;;;;;6.85;100.00;94200.09;2073153;28;20213;-82
2024/04/13 04:32:12;;;;;;;2.28;2.13;;;;;;;6.78;100.00;94201.56;2084629;28;20111;-84
2024/04/13 04:33:13;;;;;;;3.10;2.10;;;;;;;6.82;100.00;94198.94;2081453;28;20029;-83
2024/04/13 04:34:15;;;;;;;3.42;1.92;;;;;;;6.74;100.00;94206.06;2091168;28;20063;-84
2024/04/13 04:35:16;;;;;;;3.75;2.20;;;;;;;6.69;100.00;94200.31;2091465;28;20025;-83
2024/04/13 04:36:17;;;;;;;4.55;2.13;;;;;;;6.68;100.00;94196.16;2097988;28;20032;-83
2024/04/13 04:37:18;;;;;;;5.18;2.30;;;;;;;6.67;100.00;94200.69;2087118;28;20024;-84
2024/04/13 04:38:19;;;;;;;4.97;2.22;;;;;;;6.71;100.00;94204.13;2097907;28;20060;-85
2024/04/13 04:39:20;;;;;;;5.68;2.35;;;;;;;6.73;100.00;94203.78;2095431;28;20048;-82
2024/04/13 04:40:29;;;;;;;6.43;2.75;;;;;;;6.69;100.00;94203.75;2085483;28;20029;-81
2024/04/13 04:41:30;;;;;;;6.60;2.72;;;;;;;6.66;100.00;94209.00;2090503;28;20028;-82
2024/04/13 04:42:32;;;;;;;3.28;2.38;;;;;;;6.67;100.00;94207.88;2086081;28;20093;-82
2024/04/13 04:43:33;;;;;;;2.92;2.10;;;;;;;6.64;100.00;94204.06;2085647;28;20033;-84
2024/04/13 04:44:36;;;;;;;2.38;2.17;;;;;;;6.64;100.00;94201.41;2085250;28;20104;-86
2024/04/13 04:45:37;;;;;;;5.07;2.33;;;;;;;6.57;100.00;94210.06;2102837;28;20472;-84
2024/04/13 04:46:39;;;;;;;3.25;2.10;;;;;;;6.65;100.00;94205.59;2093667;28;20040;-84
2024/04/13 04:47:40;;;;;;;2.60;2.28;;;;;;;6.64;100.00;94205.97;2089457;28;20029;-84
2024/04/13 04:48:41;;;;;;;3.95;2.30;;;;;;;6.61;100.00;94204.03;2081315;28;20040;-85
2024/04/13 04:49:42;;;;;;;3.92;2.10;;;;;;;6.50;100.00;94199.38;2089576;28;20049;-85
2024/04/13 04:50:43;;;;;;;2.85;2.40;;;;;;;6.50;100.00;94199.38;2096815;28;20420;-88
2024/04/13 04:51:44;;;;;;;4.88;2.30;;;;;;;6.51;100.00;94197.47;2089226;28;20055;-85
2024/04/13 04:52:46;;;;;;;5.13;2.13;;;;;;;6.44;100.00;94198.16;2089537;28;20499;-82